sensor_id;sensor_type;location;lat;lon;timestamp;P1;durP1;ratioP1;P2;durP2;ratioP2
25343;SDS011;13299;52.052;8.548;2022-07-05T00:01:00;1.85;;;1.05;;
25343;SDS011;13299;52.052;8.548;2022-07-05T00:03:26;4.13;;;1.20;;
25343;SDS011;13299;52.052;8.548;2022-07-05T00:05:51;2.38;;;1.10;;
25343;SDS011;13299;52.052;8.548;2022-07-05T00:08:17;5.75;;;1.30;;
25343;SDS011;13299;52.052;8.548;2022-07-05T00:10:43;3.42;;;1.30;;
25343;SDS011;13299;52.052;8.548;2022-07-05T00:13:09;2.17;;;1.10;;
25343;SDS011;13299;52.052;8.548;2022-07-05T00:15:35;2.65;;;1.00;;
25343;SDS011;13299;52.052;8.548;2022-07-05T00:18:01;3.25;;;1.50;;
25343;SDS011;13299;52.052;8.548;2022-07-05T00:20:27;5.53;;;1.20;;
25343;SDS011;13299;52.052;8.548;2022-07-05T00:22:52;3.63;;;1.20;;
25343;SDS011;13299;52.052;8.548;2022-07-05T00:25:18;6.53;;;1.30;;
25343;SDS011;13299;52.052;8.548;2022-07-05T00:27:44;3.35;;;1.20;;
25343;SDS011;13299;52.052;8.548;2022-07-05T00:30:10;2.50;;;1.20;;
25343;SDS011;13299;52.052;8.548;2022-07-05T00:32:37;3.78;;;1.38;;
25343;SDS011;13299;52.052;8.548;2022-07-05T00:35:06;3.13;;;1.20;;
25343;SDS011;13299;52.052;8.548;2022-07-05T00:37:33;2.20;;;1.20;;
25343;SDS011;13299;52.052;8.548;2022-07-05T00:39:59;6.18;;;1.23;;
25343;SDS011;13299;52.052;8.548;2022-07-05T00:42:25;2.90;;;1.20;;
25343;SDS011;13299;52.052;8.548;2022-07-05T00:44:50;3.92;;;1.42;;
25343;SDS011;13299;52.052;8.548;2022-07-05T00:47:16;2.67;;;1.55;;
25343;SDS011;13299;52.052;8.548;2022-07-05T00:49:42;2.25;;;1.23;;
25343;SDS011;13299;52.052;8.548;2022-07-05T00:52:09;3.30;;;1.50;;
25343;SDS011;13299;52.052;8.548;2022-07-05T00:54:37;2.33;;;1.40;;
25343;SDS011;13299;52.052;8.548;2022-07-05T00:57:03;3.20;;;1.30;;
25343;SDS011;13299;52.052;8.548;2022-07-05T00:59:30;2.13;;;1.25;;
25343;SDS011;13299;52.052;8.548;2022-07-05T01:01:56;3.85;;;1.38;;
25343;SDS011;13299;52.052;8.548;2022-07-05T01:04:22;2.28;;;1.20;;
25343;SDS011;13299;52.052;8.548;2022-07-05T01:06:49;3.88;;;1.20;;
25343;SDS011;13299;52.052;8.548;2022-07-05T01:09:16;2.97;;;1.10;;
25343;SDS011;13299;52.052;8.548;2022-07-05T01:11:43;3.58;;;1.20;;
25343;SDS011;13299;52.052;8.548;2022-07-05T01:14:13;2.70;;;1.30;;
25343;SDS011;13299;52.052;8.548;2022-07-05T01:16:41;3.53;;;1.30;;
25343;SDS011;13299;52.052;8.548;2022-07-05T01:19:07;3.42;;;1.30;;
25343;SDS011;13299;52.052;8.548;2022-07-05T01:21:39;3.35;;;1.30;;
25343;SDS011;13299;52.052;8.548;2022-07-05T01:24:12;2.67;;;1.30;;
25343;SDS011;13299;52.052;8.548;2022-07-05T01:26:40;4.78;;;1.40;;
25343;SDS011;13299;52.052;8.548;2022-07-05T01:29:06;5.47;;;1.48;;
25343;SDS011;13299;52.052;8.548;2022-07-05T01:31:33;3.33;;;1.60;;
25343;SDS011;13299;52.052;8.548;2022-07-05T01:34:01;13.25;;;1.83;;
25343;SDS011;13299;52.052;8.548;2022-07-05T01:36:27;7.88;;;1.30;;
25343;SDS011;13299;52.052;8.548;2022-07-05T01:38:53;6.63;;;2.67;;
25343;SDS011;13299;52.052;8.548;2022-07-05T01:41:18;4.68;;;1.40;;
25343;SDS011;13299;52.052;8.548;2022-07-05T01:43:44;5.20;;;1.77;;
25343;SDS011;13299;52.052;8.548;2022-07-05T01:46:09;4.03;;;1.75;;
25343;SDS011;13299;52.052;8.548;2022-07-05T01:48:37;3.45;;;1.13;;
25343;SDS011;13299;52.052;8.548;2022-07-05T01:51:06;4.32;;;1.35;;
25343;SDS011;13299;52.052;8.548;2022-07-05T01:53:37;3.70;;;1.40;;
25343;SDS011;13299;52.052;8.548;2022-07-05T01:56:06;5.00;;;1.40;;
25343;SDS011;13299;52.052;8.548;2022-07-05T01:58:31;5.07;;;1.65;;
25343;SDS011;13299;52.052;8.548;2022-07-05T02:00:58;3.75;;;2.17;;
25343;SDS011;13299;52.052;8.548;2022-07-05T02:03:24;5.40;;;1.45;;
25343;SDS011;13299;52.052;8.548;2022-07-05T02:05:50;3.42;;;1.50;;
25343;SDS011;13299;52.052;8.548;2022-07-05T02:08:17;2.67;;;1.40;;
25343;SDS011;13299;52.052;8.548;2022-07-05T02:10:44;2.80;;;1.90;;
25343;SDS011;13299;52.052;8.548;2022-07-05T02:13:10;2.85;;;1.38;;
25343;SDS011;13299;52.052;8.548;2022-07-05T02:15:37;3.60;;;1.60;;
25343;SDS011;13299;52.052;8.548;2022-07-05T02:18:05;2.40;;;1.48;;
25343;SDS011;13299;52.052;8.548;2022-07-05T02:20:32;3.70;;;1.42;;
25343;SDS011;13299;52.052;8.548;2022-07-05T02:22:58;4.75;;;1.48;;
25343;SDS011;13299;52.052;8.548;2022-07-05T02:25:24;1.35;;;1.00;;
25343;SDS011;13299;52.052;8.548;2022-07-05T02:27:53;3.17;;;1.45;;
25343;SDS011;13299;52.052;8.548;2022-07-05T02:30:19;2.95;;;1.23;;
25343;SDS011;13299;52.052;8.548;2022-07-05T02:32:45;5.40;;;1.38;;
25343;SDS011;13299;52.052;8.548;2022-07-05T02:35:11;1.65;;;1.00;;
25343;SDS011;13299;52.052;8.548;2022-07-05T02:37:38;3.88;;;1.85;;
25343;SDS011;13299;52.052;8.548;2022-07-05T02:40:05;2.17;;;1.27;;
25343;SDS011;13299;52.052;8.548;2022-07-05T02:42:33;2.90;;;1.17;;
25343;SDS011;13299;52.052;8.548;2022-07-05T02:44:59;2.80;;;1.10;;
25343;SDS011;13299;52.052;8.548;2022-07-05T02:47:25;4.03;;;1.60;;
25343;SDS011;13299;52.052;8.548;2022-07-05T02:49:50;2.97;;;1.00;;
25343;SDS011;13299;52.052;8.548;2022-07-05T02:52:17;2.08;;;1.10;;
25343;SDS011;13299;52.052;8.548;2022-07-05T02:54:42;3.72;;;1.30;;
25343;SDS011;13299;52.052;8.548;2022-07-05T02:57:08;5.47;;;1.85;;
25343;SDS011;13299;52.052;8.548;2022-07-05T02:59:34;2.88;;;1.10;;
25343;SDS011;13299;52.052;8.548;2022-07-05T03:01:59;5.97;;;1.42;;
25343;SDS011;13299;52.052;8.548;2022-07-05T03:04:25;6.32;;;1.20;;
25343;SDS011;13299;52.052;8.548;2022-07-05T03:06:50;2.83;;;1.27;;
25343;SDS011;13299;52.052;8.548;2022-07-05T03:09:16;3.38;;;1.30;;
25343;SDS011;13299;52.052;8.548;2022-07-05T03:11:42;2.92;;;0.93;;
25343;SDS011;13299;52.052;8.548;2022-07-05T03:14:07;6.95;;;1.33;;
25343;SDS011;13299;52.052;8.548;2022-07-05T03:16:33;2.65;;;1.10;;
25343;SDS011;13299;52.052;8.548;2022-07-05T03:18:58;3.05;;;1.48;;
25343;SDS011;13299;52.052;8.548;2022-07-05T03:21:24;5.88;;;1.20;;
25343;SDS011;13299;52.052;8.548;2022-07-05T03:23:50;2.50;;;1.20;;
25343;SDS011;13299;52.052;8.548;2022-07-05T03:26:15;2.60;;;1.13;;
25343;SDS011;13299;52.052;8.548;2022-07-05T03:28:41;4.93;;;1.02;;
25343;SDS011;13299;52.052;8.548;2022-07-05T03:31:06;4.30;;;1.27;;
25343;SDS011;13299;52.052;8.548;2022-07-05T03:33:33;2.80;;;0.93;;
25343;SDS011;13299;52.052;8.548;2022-07-05T03:35:59;4.45;;;1.42;;
25343;SDS011;13299;52.052;8.548;2022-07-05T03:38:24;3.45;;;0.90;;
25343;SDS011;13299;52.052;8.548;2022-07-05T03:40:50;4.40;;;1.30;;
25343;SDS011;13299;52.052;8.548;2022-07-05T03:43:15;3.25;;;1.10;;
25343;SDS011;13299;52.052;8.548;2022-07-05T03:45:41;5.25;;;1.33;;
25343;SDS011;13299;52.052;8.548;2022-07-05T03:48:07;4.22;;;1.40;;
25343;SDS011;13299;52.052;8.548;2022-07-05T03:50:32;1.90;;;1.08;;
25343;SDS011;13299;52.052;8.548;2022-07-05T03:52:58;2.05;;;0.98;;
25343;SDS011;13299;52.052;8.548;2022-07-05T03:55:24;2.30;;;1.33;;
25343;SDS011;13299;52.052;8.548;2022-07-05T03:57:49;6.78;;;1.50;;
25343;SDS011;13299;52.052;8.548;2022-07-05T04:00:15;3.83;;;1.35;;
25343;SDS011;13299;52.052;8.548;2022-07-05T04:02:41;3.08;;;1.15;;
25343;SDS011;13299;52.052;8.548;2022-07-05T04:05:07;2.53;;;0.95;;
25343;SDS011;13299;52.052;8.548;2022-07-05T04:07:33;2.72;;;1.40;;
25343;SDS011;13299;52.052;8.548;2022-07-05T04:09:59;2.92;;;1.13;;
25343;SDS011;13299;52.052;8.548;2022-07-05T04:12:25;2.03;;;1.20;;
25343;SDS011;13299;52.052;8.548;2022-07-05T04:14:51;4.22;;;1.00;;
25343;SDS011;13299;52.052;8.548;2022-07-05T04:17:17;4.80;;;1.20;;
25343;SDS011;13299;52.052;8.548;2022-07-05T04:19:42;3.72;;;1.20;;
25343;SDS011;13299;52.052;8.548;2022-07-05T04:22:08;2.30;;;1.02;;
25343;SDS011;13299;52.052;8.548;2022-07-05T04:24:34;3.28;;;1.20;;
25343;SDS011;13299;52.052;8.548;2022-07-05T04:27:19;4.50;;;1.52;;
25343;SDS011;13299;52.052;8.548;2022-07-05T04:29:45;1.80;;;1.10;;
25343;SDS011;13299;52.052;8.548;2022-07-05T04:32:11;2.15;;;1.20;;
25343;SDS011;13299;52.052;8.548;2022-07-05T04:34:36;2.15;;;1.10;;
25343;SDS011;13299;52.052;8.548;2022-07-05T04:37:02;2.67;;;1.17;;
25343;SDS011;13299;52.052;8.548;2022-07-05T04:39:28;2.20;;;1.20;;
25343;SDS011;13299;52.052;8.548;2022-07-05T04:41:53;3.35;;;1.05;;
25343;SDS011;13299;52.052;8.548;2022-07-05T04:44:19;2.55;;;0.98;;
25343;SDS011;13299;52.052;8.548;2022-07-05T04:46:44;2.50;;;1.25;;
25343;SDS011;13299;52.052;8.548;2022-07-05T04:49:10;5.38;;;1.35;;
25343;SDS011;13299;52.052;8.548;2022-07-05T04:51:36;4.65;;;1.05;;
25343;SDS011;13299;52.052;8.548;2022-07-05T04:54:01;2.15;;;1.13;;
25343;SDS011;13299;52.052;8.548;2022-07-05T04:56:27;4.30;;;1.30;;
25343;SDS011;13299;52.052;8.548;2022-07-05T04:58:52;3.13;;;1.02;;
25343;SDS011;13299;52.052;8.548;2022-07-05T05:01:18;4.53;;;1.10;;
25343;SDS011;13299;52.052;8.548;2022-07-05T05:03:44;4.70;;;1.30;;
25343;SDS011;13299;52.052;8.548;2022-07-05T05:06:09;4.85;;;0.95;;
25343;SDS011;13299;52.052;8.548;2022-07-05T05:08:35;4.15;;;0.90;;
25343;SDS011;13299;52.052;8.548;2022-07-05T05:11:01;6.20;;;1.30;;
25343;SDS011;13299;52.052;8.548;2022-07-05T05:13:26;3.58;;;1.13;;
25343;SDS011;13299;52.052;8.548;2022-07-05T05:15:52;2.08;;;1.08;;
25343;SDS011;13299;52.052;8.548;2022-07-05T05:18:17;7.88;;;1.40;;
25343;SDS011;13299;52.052;8.548;2022-07-05T05:20:46;3.17;;;1.30;;
25343;SDS011;13299;52.052;8.548;2022-07-05T05:23:11;2.95;;;1.27;;
25343;SDS011;13299;52.052;8.548;2022-07-05T05:25:37;3.85;;;1.25;;
25343;SDS011;13299;52.052;8.548;2022-07-05T05:28:03;2.55;;;1.00;;
25343;SDS011;13299;52.052;8.548;2022-07-05T05:30:29;3.45;;;1.55;;
25343;SDS011;13299;52.052;8.548;2022-07-05T05:32:54;3.30;;;1.30;;
25343;SDS011;13299;52.052;8.548;2022-07-05T05:35:20;4.25;;;1.10;;
25343;SDS011;13299;52.052;8.548;2022-07-05T05:37:50;3.22;;;1.10;;
25343;SDS011;13299;52.052;8.548;2022-07-05T05:40:17;4.03;;;1.40;;
25343;SDS011;13299;52.052;8.548;2022-07-05T05:42:44;2.53;;;1.13;;
25343;SDS011;13299;52.052;8.548;2022-07-05T05:45:10;3.22;;;1.10;;
25343;SDS011;13299;52.052;8.548;2022-07-05T05:47:49;4.35;;;1.20;;
25343;SDS011;13299;52.052;8.548;2022-07-05T05:50:23;3.22;;;1.20;;
25343;SDS011;13299;52.052;8.548;2022-07-05T05:52:50;3.42;;;1.50;;
25343;SDS011;13299;52.052;8.548;2022-07-05T05:55:16;10.00;;;1.58;;
25343;SDS011;13299;52.052;8.548;2022-07-05T05:57:43;3.28;;;1.20;;
25343;SDS011;13299;52.052;8.548;2022-07-05T06:00:09;8.07;;;1.15;;
25343;SDS011;13299;52.052;8.548;2022-07-05T06:02:35;2.85;;;1.02;;
25343;SDS011;13299;52.052;8.548;2022-07-05T06:05:01;6.72;;;1.05;;
25343;SDS011;13299;52.052;8.548;2022-07-05T06:07:26;6.68;;;1.20;;
25343;SDS011;13299;52.052;8.548;2022-07-05T06:09:52;1.75;;;0.90;;
25343;SDS011;13299;52.052;8.548;2022-07-05T06:12:17;6.97;;;1.33;;
25343;SDS011;13299;52.052;8.548;2022-07-05T06:14:43;3.97;;;1.10;;
25343;SDS011;13299;52.052;8.548;2022-07-05T06:17:09;2.78;;;0.90;;
25343;SDS011;13299;52.052;8.548;2022-07-05T06:19:34;4.10;;;1.02;;
25343;SDS011;13299;52.052;8.548;2022-07-05T06:22:00;3.25;;;1.10;;
25343;SDS011;13299;52.052;8.548;2022-07-05T06:24:26;3.67;;;0.90;;
25343;SDS011;13299;52.052;8.548;2022-07-05T06:26:51;0.88;;;0.60;;
25343;SDS011;13299;52.052;8.548;2022-07-05T06:29:17;1.63;;;0.88;;
25343;SDS011;13299;52.052;8.548;2022-07-05T06:31:42;4.03;;;0.88;;
25343;SDS011;13299;52.052;8.548;2022-07-05T06:34:08;1.50;;;0.63;;
25343;SDS011;13299;52.052;8.548;2022-07-05T06:36:34;3.10;;;1.05;;
25343;SDS011;13299;52.052;8.548;2022-07-05T06:38:59;4.20;;;1.00;;
25343;SDS011;13299;52.052;8.548;2022-07-05T06:41:26;1.33;;;0.70;;
25343;SDS011;13299;52.052;8.548;2022-07-05T06:43:51;2.55;;;0.77;;
25343;SDS011;13299;52.052;8.548;2022-07-05T06:46:17;1.02;;;0.60;;
25343;SDS011;13299;52.052;8.548;2022-07-05T06:48:43;1.75;;;0.80;;
25343;SDS011;13299;52.052;8.548;2022-07-05T06:51:08;3.38;;;0.90;;
25343;SDS011;13299;52.052;8.548;2022-07-05T06:53:34;2.00;;;1.20;;
25343;SDS011;13299;52.052;8.548;2022-07-05T06:55:59;2.80;;;0.77;;
25343;SDS011;13299;52.052;8.548;2022-07-05T06:58:25;2.38;;;0.90;;
25343;SDS011;13299;52.052;8.548;2022-07-05T07:00:50;2.35;;;0.68;;
25343;SDS011;13299;52.052;8.548;2022-07-05T07:03:16;1.40;;;0.68;;
25343;SDS011;13299;52.052;8.548;2022-07-05T07:05:42;2.15;;;0.60;;
25343;SDS011;13299;52.052;8.548;2022-07-05T07:08:07;1.70;;;0.70;;
25343;SDS011;13299;52.052;8.548;2022-07-05T07:10:52;3.05;;;0.85;;
25343;SDS011;13299;52.052;8.548;2022-07-05T07:13:17;2.70;;;0.80;;
25343;SDS011;13299;52.052;8.548;2022-07-05T07:15:44;1.65;;;0.80;;
25343;SDS011;13299;52.052;8.548;2022-07-05T07:18:11;1.58;;;0.70;;
25343;SDS011;13299;52.052;8.548;2022-07-05T07:20:37;0.65;;;0.60;;
25343;SDS011;13299;52.052;8.548;2022-07-05T07:23:03;1.63;;;0.52;;
25343;SDS011;13299;52.052;8.548;2022-07-05T07:25:28;1.30;;;0.60;;
25343;SDS011;13299;52.052;8.548;2022-07-05T07:27:54;2.20;;;0.70;;
25343;SDS011;13299;52.052;8.548;2022-07-05T07:30:21;3.33;;;0.70;;
25343;SDS011;13299;52.052;8.548;2022-07-05T07:32:49;1.70;;;0.52;;
25343;SDS011;13299;52.052;8.548;2022-07-05T07:35:14;2.10;;;0.60;;
25343;SDS011;13299;52.052;8.548;2022-07-05T07:37:40;1.38;;;0.63;;
25343;SDS011;13299;52.052;8.548;2022-07-05T07:40:06;1.42;;;0.60;;
25343;SDS011;13299;52.052;8.548;2022-07-05T07:42:32;2.65;;;0.63;;
25343;SDS011;13299;52.052;8.548;2022-07-05T07:44:58;3.03;;;0.50;;
25343;SDS011;13299;52.052;8.548;2022-07-05T07:47:28;1.65;;;0.40;;
25343;SDS011;13299;52.052;8.548;2022-07-05T07:49:57;0.75;;;0.57;;
25343;SDS011;13299;52.052;8.548;2022-07-05T07:52:23;1.08;;;0.47;;
25343;SDS011;13299;52.052;8.548;2022-07-05T07:54:48;1.88;;;0.65;;
25343;SDS011;13299;52.052;8.548;2022-07-05T07:57:14;1.77;;;0.47;;
25343;SDS011;13299;52.052;8.548;2022-07-05T07:59:40;1.77;;;0.60;;
25343;SDS011;13299;52.052;8.548;2022-07-05T08:02:06;0.55;;;0.40;;
25343;SDS011;13299;52.052;8.548;2022-07-05T08:04:32;1.67;;;0.70;;
25343;SDS011;13299;52.052;8.548;2022-07-05T08:06:58;3.17;;;0.50;;
25343;SDS011;13299;52.052;8.548;2022-07-05T08:09:24;1.65;;;0.60;;
25343;SDS011;13299;52.052;8.548;2022-07-05T08:11:49;1.38;;;0.50;;
25343;SDS011;13299;52.052;8.548;2022-07-05T08:14:16;0.85;;;0.55;;
25343;SDS011;13299;52.052;8.548;2022-07-05T08:16:42;1.85;;;0.70;;
25343;SDS011;13299;52.052;8.548;2022-07-05T08:19:10;3.15;;;0.90;;
25343;SDS011;13299;52.052;8.548;2022-07-05T08:21:55;3.03;;;0.57;;
25343;SDS011;13299;52.052;8.548;2022-07-05T08:24:20;3.10;;;0.70;;
25343;SDS011;13299;52.052;8.548;2022-07-05T08:26:47;1.45;;;0.47;;
25343;SDS011;13299;52.052;8.548;2022-07-05T08:29:13;2.65;;;0.57;;
25343;SDS011;13299;52.052;8.548;2022-07-05T08:31:40;1.88;;;0.60;;
25343;SDS011;13299;52.052;8.548;2022-07-05T08:34:11;0.63;;;0.50;;
25343;SDS011;13299;52.052;8.548;2022-07-05T08:36:37;2.00;;;0.60;;
25343;SDS011;13299;52.052;8.548;2022-07-05T08:39:05;1.95;;;0.68;;
25343;SDS011;13299;52.052;8.548;2022-07-05T08:41:32;2.63;;;0.75;;
25343;SDS011;13299;52.052;8.548;2022-07-05T08:44:00;3.22;;;0.50;;
25343;SDS011;13299;52.052;8.548;2022-07-05T08:46:29;1.67;;;0.57;;
25343;SDS011;13299;52.052;8.548;2022-07-05T08:48:57;1.40;;;0.52;;
25343;SDS011;13299;52.052;8.548;2022-07-05T08:51:25;1.98;;;0.50;;
25343;SDS011;13299;52.052;8.548;2022-07-05T08:53:53;1.65;;;0.60;;
25343;SDS011;13299;52.052;8.548;2022-07-05T08:56:20;1.08;;;0.50;;
25343;SDS011;13299;52.052;8.548;2022-07-05T08:58:46;0.80;;;0.60;;
25343;SDS011;13299;52.052;8.548;2022-07-05T09:01:14;4.10;;;0.60;;
25343;SDS011;13299;52.052;8.548;2022-07-05T09:03:59;2.90;;;0.77;;
25343;SDS011;13299;52.052;8.548;2022-07-05T09:06:29;1.38;;;0.60;;
25343;SDS011;13299;52.052;8.548;2022-07-05T09:08:58;2.13;;;0.55;;
25343;SDS011;13299;52.052;8.548;2022-07-05T09:11:25;1.13;;;0.70;;
25343;SDS011;13299;52.052;8.548;2022-07-05T09:13:56;0.50;;;0.40;;
25343;SDS011;13299;52.052;8.548;2022-07-05T09:16:22;2.97;;;0.63;;
25343;SDS011;13299;52.052;8.548;2022-07-05T09:18:50;1.65;;;0.50;;
25343;SDS011;13299;52.052;8.548;2022-07-05T09:21:19;2.55;;;0.80;;
25343;SDS011;13299;52.052;8.548;2022-07-05T09:23:54;2.65;;;0.70;;
25343;SDS011;13299;52.052;8.548;2022-07-05T09:27:01;1.17;;;0.60;;
25343;SDS011;13299;52.052;8.548;2022-07-05T09:29:26;1.15;;;0.50;;
25343;SDS011;13299;52.052;8.548;2022-07-05T09:31:51;2.92;;;0.73;;
25343;SDS011;13299;52.052;8.548;2022-07-05T09:34:20;0.93;;;0.50;;
25343;SDS011;13299;52.052;8.548;2022-07-05T09:36:53;1.88;;;0.60;;
25343;SDS011;13299;52.052;8.548;2022-07-05T09:42:10;1.45;;;0.50;;
25343;SDS011;13299;52.052;8.548;2022-07-05T09:44:45;1.60;;;0.68;;
25343;SDS011;13299;52.052;8.548;2022-07-05T09:47:13;1.95;;;0.70;;
25343;SDS011;13299;52.052;8.548;2022-07-05T09:49:44;1.40;;;0.57;;
25343;SDS011;13299;52.052;8.548;2022-07-05T09:52:27;5.63;;;0.60;;
25343;SDS011;13299;52.052;8.548;2022-07-05T09:57:41;0.73;;;0.60;;
25343;SDS011;13299;52.052;8.548;2022-07-05T10:00:12;0.63;;;0.43;;
25343;SDS011;13299;52.052;8.548;2022-07-05T10:02:42;1.30;;;0.90;;
25343;SDS011;13299;52.052;8.548;2022-07-05T10:05:22;2.10;;;0.63;;
25343;SDS011;13299;52.052;8.548;2022-07-05T10:07:59;1.85;;;0.65;;
25343;SDS011;13299;52.052;8.548;2022-07-05T10:10:27;3.15;;;0.73;;
25343;SDS011;13299;52.052;8.548;2022-07-05T10:12:54;4.03;;;0.52;;
25343;SDS011;13299;52.052;8.548;2022-07-05T10:15:22;3.28;;;0.50;;
25343;SDS011;13299;52.052;8.548;2022-07-05T10:17:53;0.60;;;0.50;;
25343;SDS011;13299;52.052;8.548;2022-07-05T10:20:25;1.42;;;0.60;;
25343;SDS011;13299;52.052;8.548;2022-07-05T10:22:57;1.63;;;0.57;;
25343;SDS011;13299;52.052;8.548;2022-07-05T10:25:23;2.17;;;0.68;;
25343;SDS011;13299;52.052;8.548;2022-07-05T10:27:53;1.48;;;0.63;;
25343;SDS011;13299;52.052;8.548;2022-07-05T10:30:19;5.35;;;0.77;;
25343;SDS011;13299;52.052;8.548;2022-07-05T10:32:47;3.80;;;0.70;;
25343;SDS011;13299;52.052;8.548;2022-07-05T10:35:15;1.35;;;0.60;;
25343;SDS011;13299;52.052;8.548;2022-07-05T10:37:42;1.75;;;0.50;;
25343;SDS011;13299;52.052;8.548;2022-07-05T10:40:08;3.38;;;0.65;;
25343;SDS011;13299;52.052;8.548;2022-07-05T10:42:46;1.55;;;0.68;;
25343;SDS011;13299;52.052;8.548;2022-07-05T10:45:28;1.23;;;0.60;;
25343;SDS011;13299;52.052;8.548;2022-07-05T11:03:49;0.65;;;0.50;;
25343;SDS011;13299;52.052;8.548;2022-07-05T11:13:49;2.92;;;0.63;;
25343;SDS011;13299;52.052;8.548;2022-07-05T11:16:24;7.40;;;0.75;;
25343;SDS011;13299;52.052;8.548;2022-07-05T11:21:29;2.97;;;0.70;;
25343;SDS011;13299;52.052;8.548;2022-07-05T11:24:00;1.23;;;0.60;;
25343;SDS011;13299;52.052;8.548;2022-07-05T11:26:45;2.45;;;0.68;;
25343;SDS011;13299;52.052;8.548;2022-07-05T11:32:12;1.45;;;0.52;;
25343;SDS011;13299;52.052;8.548;2022-07-05T11:34:39;1.70;;;0.98;;
25343;SDS011;13299;52.052;8.548;2022-07-05T11:40:42;1.58;;;0.60;;
25343;SDS011;13299;52.052;8.548;2022-07-05T11:42:49;3.25;;;1.08;;
25343;SDS011;13299;52.052;8.548;2022-07-05T11:45:16;1.92;;;0.80;;
25343;SDS011;13299;52.052;8.548;2022-07-05T11:47:42;2.80;;;0.50;;
25343;SDS011;13299;52.052;8.548;2022-07-05T11:50:09;1.10;;;0.52;;
25343;SDS011;13299;52.052;8.548;2022-07-05T11:52:36;3.10;;;0.82;;
25343;SDS011;13299;52.052;8.548;2022-07-05T11:55:03;1.95;;;0.65;;
25343;SDS011;13299;52.052;8.548;2022-07-05T11:57:34;1.15;;;0.60;;
25343;SDS011;13299;52.052;8.548;2022-07-05T11:59:59;1.77;;;0.75;;
25343;SDS011;13299;52.052;8.548;2022-07-05T12:02:26;0.98;;;0.60;;
25343;SDS011;13299;52.052;8.548;2022-07-05T12:04:52;1.63;;;0.50;;
25343;SDS011;13299;52.052;8.548;2022-07-05T12:09:51;4.00;;;0.50;;
25343;SDS011;13299;52.052;8.548;2022-07-05T12:12:36;4.50;;;0.77;;
25343;SDS011;13299;52.052;8.548;2022-07-05T12:15:17;1.45;;;0.60;;
25343;SDS011;13299;52.052;8.548;2022-07-05T12:17:48;0.63;;;0.40;;
25343;SDS011;13299;52.052;8.548;2022-07-05T12:20:20;2.50;;;0.70;;
25343;SDS011;13299;52.052;8.548;2022-07-05T12:22:48;1.35;;;0.70;;
25343;SDS011;13299;52.052;8.548;2022-07-05T12:25:16;2.97;;;0.57;;
25343;SDS011;13299;52.052;8.548;2022-07-05T12:27:44;3.03;;;1.15;;
25343;SDS011;13299;52.052;8.548;2022-07-05T12:30:10;3.00;;;0.82;;
25343;SDS011;13299;52.052;8.548;2022-07-05T12:37:56;1.58;;;0.65;;
25343;SDS011;13299;52.052;8.548;2022-07-05T12:40:26;3.30;;;0.60;;
25343;SDS011;13299;52.052;8.548;2022-07-05T12:45:30;1.05;;;0.47;;
25343;SDS011;13299;52.052;8.548;2022-07-05T12:47:57;1.02;;;0.60;;
25343;SDS011;13299;52.052;8.548;2022-07-05T12:50:25;2.30;;;0.63;;
25343;SDS011;13299;52.052;8.548;2022-07-05T12:55:22;1.90;;;0.60;;
25343;SDS011;13299;52.052;8.548;2022-07-05T12:58:06;1.40;;;0.57;;
25343;SDS011;13299;52.052;8.548;2022-07-05T13:00:32;1.83;;;0.50;;
25343;SDS011;13299;52.052;8.548;2022-07-05T13:02:57;1.13;;;0.45;;
25343;SDS011;13299;52.052;8.548;2022-07-05T13:05:24;4.00;;;0.47;;
25343;SDS011;13299;52.052;8.548;2022-07-05T13:07:51;3.58;;;0.68;;
25343;SDS011;13299;52.052;8.548;2022-07-05T13:10:21;0.95;;;0.55;;
25343;SDS011;13299;52.052;8.548;2022-07-05T13:12:48;1.17;;;0.70;;
25343;SDS011;13299;52.052;8.548;2022-07-05T13:15:14;1.27;;;0.93;;
25343;SDS011;13299;52.052;8.548;2022-07-05T13:17:40;1.35;;;0.70;;
25343;SDS011;13299;52.052;8.548;2022-07-05T13:20:07;2.40;;;0.70;;
25343;SDS011;13299;52.052;8.548;2022-07-05T13:22:33;2.85;;;0.52;;
25343;SDS011;13299;52.052;8.548;2022-07-05T13:24:59;1.67;;;0.63;;
25343;SDS011;13299;52.052;8.548;2022-07-05T13:27:24;1.88;;;0.65;;
25343;SDS011;13299;52.052;8.548;2022-07-05T13:29:50;4.93;;;1.15;;
25343;SDS011;13299;52.052;8.548;2022-07-05T13:32:16;0.52;;;0.43;;
25343;SDS011;13299;52.052;8.548;2022-07-05T13:34:45;1.15;;;0.52;;
25343;SDS011;13299;52.052;8.548;2022-07-05T13:37:11;1.58;;;0.57;;
25343;SDS011;13299;52.052;8.548;2022-07-05T13:39:37;2.25;;;0.50;;
25343;SDS011;13299;52.052;8.548;2022-07-05T13:42:03;1.13;;;0.65;;
25343;SDS011;13299;52.052;8.548;2022-07-05T13:44:30;3.03;;;0.60;;
25343;SDS011;13299;52.052;8.548;2022-07-05T13:46:56;2.50;;;0.63;;
25343;SDS011;13299;52.052;8.548;2022-07-05T13:49:21;2.25;;;0.60;;
25343;SDS011;13299;52.052;8.548;2022-07-05T13:51:47;1.77;;;0.60;;
25343;SDS011;13299;52.052;8.548;2022-07-05T13:54:13;1.17;;;0.60;;
25343;SDS011;13299;52.052;8.548;2022-07-05T13:56:39;2.75;;;0.57;;
25343;SDS011;13299;52.052;8.548;2022-07-05T13:59:05;1.60;;;0.68;;
25343;SDS011;13299;52.052;8.548;2022-07-05T14:01:31;3.35;;;0.50;;
25343;SDS011;13299;52.052;8.548;2022-07-05T14:03:57;1.70;;;0.65;;
25343;SDS011;13299;52.052;8.548;2022-07-05T14:06:25;4.88;;;0.80;;
25343;SDS011;13299;52.052;8.548;2022-07-05T14:08:51;1.65;;;0.82;;
25343;SDS011;13299;52.052;8.548;2022-07-05T14:11:17;1.95;;;0.60;;
25343;SDS011;13299;52.052;8.548;2022-07-05T14:13:43;3.05;;;0.70;;
25343;SDS011;13299;52.052;8.548;2022-07-05T14:16:09;2.40;;;0.90;;
25343;SDS011;13299;52.052;8.548;2022-07-05T14:18:35;1.85;;;0.60;;
25343;SDS011;13299;52.052;8.548;2022-07-05T14:21:00;2.55;;;1.17;;
25343;SDS011;13299;52.052;8.548;2022-07-05T14:23:26;2.60;;;0.80;;
25343;SDS011;13299;52.052;8.548;2022-07-05T14:25:51;4.55;;;0.70;;
25343;SDS011;13299;52.052;8.548;2022-07-05T14:28:17;1.40;;;0.70;;
25343;SDS011;13299;52.052;8.548;2022-07-05T14:30:44;1.13;;;0.60;;
25343;SDS011;13299;52.052;8.548;2022-07-05T14:33:11;1.15;;;0.60;;
25343;SDS011;13299;52.052;8.548;2022-07-05T14:35:38;1.23;;;0.65;;
25343;SDS011;13299;52.052;8.548;2022-07-05T14:38:04;2.78;;;0.68;;
25343;SDS011;13299;52.052;8.548;2022-07-05T14:40:31;2.53;;;0.73;;
25343;SDS011;13299;52.052;8.548;2022-07-05T14:42:57;1.95;;;0.77;;
25343;SDS011;13299;52.052;8.548;2022-07-05T14:45:24;2.63;;;0.60;;
25343;SDS011;13299;52.052;8.548;2022-07-05T14:47:50;1.70;;;0.60;;
25343;SDS011;13299;52.052;8.548;2022-07-05T14:50:16;3.72;;;0.85;;
25343;SDS011;13299;52.052;8.548;2022-07-05T14:52:42;1.10;;;0.60;;
25343;SDS011;13299;52.052;8.548;2022-07-05T14:55:08;2.05;;;0.65;;
25343;SDS011;13299;52.052;8.548;2022-07-05T14:57:37;1.75;;;0.70;;
25343;SDS011;13299;52.052;8.548;2022-07-05T15:00:05;1.27;;;0.70;;
25343;SDS011;13299;52.052;8.548;2022-07-05T15:02:33;1.40;;;0.90;;
25343;SDS011;13299;52.052;8.548;2022-07-05T15:04:59;1.38;;;0.50;;
25343;SDS011;13299;52.052;8.548;2022-07-05T15:07:24;3.08;;;0.77;;
25343;SDS011;13299;52.052;8.548;2022-07-05T15:09:51;0.85;;;0.55;;
25343;SDS011;13299;52.052;8.548;2022-07-05T15:12:17;1.98;;;0.50;;
25343;SDS011;13299;52.052;8.548;2022-07-05T15:14:43;3.33;;;0.50;;
25343;SDS011;13299;52.052;8.548;2022-07-05T15:17:09;1.27;;;0.50;;
25343;SDS011;13299;52.052;8.548;2022-07-05T15:19:35;2.35;;;0.70;;
25343;SDS011;13299;52.052;8.548;2022-07-05T15:22:01;1.50;;;0.80;;
25343;SDS011;13299;52.052;8.548;2022-07-05T15:24:27;3.33;;;0.50;;
25343;SDS011;13299;52.052;8.548;2022-07-05T15:26:52;1.58;;;0.52;;
25343;SDS011;13299;52.052;8.548;2022-07-05T15:29:18;1.95;;;0.60;;
25343;SDS011;13299;52.052;8.548;2022-07-05T15:31:44;1.02;;;0.50;;
25343;SDS011;13299;52.052;8.548;2022-07-05T15:34:09;4.53;;;0.80;;
25343;SDS011;13299;52.052;8.548;2022-07-05T15:36:37;3.45;;;0.80;;
25343;SDS011;13299;52.052;8.548;2022-07-05T15:39:03;1.50;;;0.50;;